EGLS weather

CLOSED Old Sarum Airfield
Salisbury, England, United Kingdom

Public forecast

Using degrees Celsius for public forecast. Weather courtesy of forecast.io.

Closest aviation weather report (METAR) to Old Sarum Airfield

Closest report is MoD Boscombe Down Airport, 3.5 nm (6.5 km) NNE. Retrieved 2020/02/23 00:50 UTC (48 minutes ago):

EGDM 230050Z AUTO 20013KT 8000 -DZ FEW017/// BKN040/// 09/07 Q1018

Closest aviation forecast (TAF) to Old Sarum Airfield

Forecast is more than 12 hours old.

Closest forecast is MoD Boscombe Down Airport, 3.5 nm (6.5 km) NNE. Retrieved 2020-02-22 00:45 UTC (1 day ago):

TAF TAF EGDM 212241Z 2200/2212 23018G28KT 9999 BKN020 BECMG 2201/2204 BKN010 TEMPO 2202/2206 24028G38KT PROB30 TEMPO 2202/2210 3000 -RADZ BKN006 BECMG 2209/2211 SCT025 TEMPO 2211/2212 SCT015